Terminal Aerodrome Forecast
Issued by NWS

Home | Current Version | Previous Version | Text Only | Print | Product List | Glossary On
Versions: 1 2 3 4 5 6 7 8 9 10 11 12 13 14
080
FTUS45 KRIW 030533
TAFCOD
TAF
KCOD 030533Z 0306/0406 24015G25KT P6SM SCT250 WS015/25040KT
     FM031200 25018G30KT P6SM BKN120
      AMD LTD TO CLD VIS AND WIND=

USA.gov is the U.S. government's official web portal to all federal, state and local government web resources and services.